Карточка аэропорта UNWW

Внимание!
Информация на этой странице в стадии наполнения.
Если вы не увидели какой-то информации, или заметили неточность - пожалуйста сообщите нам!
Спасибо!
Команда RU-STAFF
Название аэропортаСпиченково
Название аэропорта (англ.)Spichenkovo
Превышение1023 ft. (311.8 m.)
Координаты53°48.714', 86°52.704'
Высота перехода800m
Эшелон переходаFL050
Коды ответчика5270-5277
Зона ОрВДНовосибирск РПИ (UNNT)
Данные METARUNWW 041030Z 18005MPS 3600 -SN BKN027 M06/M09 Q1020 R19/920243 NOSIG RMK QFE738
Проноз погоды (TAF)UNWW 040800Z 0409/0509 20008G15MPS 2500 -SHSN DRSN BKN011CB TEMPO 0409/0416 1000 SHSN BLSN BKN005 BKN016CB FM041600 21003G08MPS 6000 -SHSN BKN016CB TEMPO 0416/0509 2000 SHSN BKN011CB
NOTAMshow/hide NOTAM
AWOS   TABLE

Информация о ВПП

ВПП Длина ВПП (м.) Покрытие Курс ВПП Частота ILS
192679Цементобетон194111.1
012679Цементобетон14 

Диспетчерские позиции

Позывной Наименование органа УВД Частота
UNWW_APPНовокузнецк-Подход118.6
UNWW_TWRНовокузнецк-Старт121.2



Спутниковое изображение